sensor_id;sensor_type;location;lat;lon;timestamp;P1;durP1;ratioP1;P2;durP2;ratioP2
71771;SDS011;59606;52.138;5.424;2024-01-11T00:01:46;10.23;;;5.00;;
71771;SDS011;59606;52.138;5.424;2024-01-11T00:04:13;13.60;;;4.70;;
71771;SDS011;59606;52.138;5.424;2024-01-11T00:06:43;13.82;;;5.53;;
71771;SDS011;59606;52.138;5.424;2024-01-11T00:09:10;15.52;;;6.00;;
71771;SDS011;59606;52.138;5.424;2024-01-11T00:11:37;13.55;;;4.97;;
71771;SDS011;59606;52.138;5.424;2024-01-11T00:14:04;11.55;;;4.15;;
71771;SDS011;59606;52.138;5.424;2024-01-11T00:16:30;11.40;;;4.17;;
71771;SDS011;59606;52.138;5.424;2024-01-11T00:18:57;11.85;;;4.55;;
71771;SDS011;59606;52.138;5.424;2024-01-11T00:21:24;10.93;;;3.72;;
71771;SDS011;59606;52.138;5.424;2024-01-11T00:23:51;9.32;;;4.63;;
71771;SDS011;59606;52.138;5.424;2024-01-11T00:26:17;13.48;;;5.57;;
71771;SDS011;59606;52.138;5.424;2024-01-11T00:28:44;5.77;;;3.03;;
71771;SDS011;59606;52.138;5.424;2024-01-11T00:31:11;9.35;;;4.60;;
71771;SDS011;59606;52.138;5.424;2024-01-11T00:33:37;10.70;;;4.38;;
71771;SDS011;59606;52.138;5.424;2024-01-11T00:36:05;13.50;;;4.53;;
71771;SDS011;59606;52.138;5.424;2024-01-11T00:38:32;10.57;;;4.45;;
71771;SDS011;59606;52.138;5.424;2024-01-11T00:40:58;13.37;;;5.20;;
71771;SDS011;59606;52.138;5.424;2024-01-11T00:43:25;8.88;;;4.15;;
71771;SDS011;59606;52.138;5.424;2024-01-11T00:45:51;10.65;;;4.07;;
71771;SDS011;59606;52.138;5.424;2024-01-11T00:48:18;9.07;;;4.07;;
71771;SDS011;59606;52.138;5.424;2024-01-11T00:50:44;10.18;;;4.03;;
71771;SDS011;59606;52.138;5.424;2024-01-11T00:53:11;10.83;;;5.30;;
71771;SDS011;59606;52.138;5.424;2024-01-11T00:55:40;8.00;;;3.30;;
71771;SDS011;59606;52.138;5.424;2024-01-11T00:58:07;11.45;;;4.20;;
71771;SDS011;59606;52.138;5.424;2024-01-11T01:00:33;10.77;;;4.70;;
71771;SDS011;59606;52.138;5.424;2024-01-11T01:03:00;12.70;;;5.45;;
71771;SDS011;59606;52.138;5.424;2024-01-11T01:05:27;11.53;;;4.20;;
71771;SDS011;59606;52.138;5.424;2024-01-11T01:07:53;11.30;;;4.82;;
71771;SDS011;59606;52.138;5.424;2024-01-11T01:10:20;10.57;;;4.68;;
71771;SDS011;59606;52.138;5.424;2024-01-11T01:12:46;15.40;;;5.40;;
71771;SDS011;59606;52.138;5.424;2024-01-11T01:15:13;10.93;;;4.20;;
71771;SDS011;59606;52.138;5.424;2024-01-11T01:17:40;7.33;;;4.77;;
71771;SDS011;59606;52.138;5.424;2024-01-11T01:20:07;9.82;;;4.25;;
71771;SDS011;59606;52.138;5.424;2024-01-11T01:22:35;13.75;;;4.32;;
71771;SDS011;59606;52.138;5.424;2024-01-11T01:25:01;7.43;;;3.95;;
71771;SDS011;59606;52.138;5.424;2024-01-11T01:27:28;13.05;;;4.43;;
71771;SDS011;59606;52.138;5.424;2024-01-11T01:29:54;9.87;;;4.07;;
71771;SDS011;59606;52.138;5.424;2024-01-11T01:32:21;13.48;;;6.07;;
71771;SDS011;59606;52.138;5.424;2024-01-11T01:34:48;10.48;;;5.05;;
71771;SDS011;59606;52.138;5.424;2024-01-11T01:37:14;8.98;;;4.30;;
71771;SDS011;59606;52.138;5.424;2024-01-11T01:39:41;13.80;;;5.30;;
71771;SDS011;59606;52.138;5.424;2024-01-11T01:42:08;14.67;;;6.43;;
71771;SDS011;59606;52.138;5.424;2024-01-11T01:44:34;13.23;;;5.22;;
71771;SDS011;59606;52.138;5.424;2024-01-11T01:47:02;10.43;;;4.22;;
71771;SDS011;59606;52.138;5.424;2024-01-11T01:49:29;9.77;;;4.65;;
71771;SDS011;59606;52.138;5.424;2024-01-11T01:51:56;11.45;;;5.57;;
71771;SDS011;59606;52.138;5.424;2024-01-11T01:54:23;12.33;;;5.57;;
71771;SDS011;59606;52.138;5.424;2024-01-11T01:56:51;11.88;;;5.22;;
71771;SDS011;59606;52.138;5.424;2024-01-11T01:59:19;14.30;;;6.07;;
71771;SDS011;59606;52.138;5.424;2024-01-11T02:01:47;10.63;;;5.03;;
71771;SDS011;59606;52.138;5.424;2024-01-11T02:04:14;14.77;;;4.93;;
71771;SDS011;59606;52.138;5.424;2024-01-11T02:06:41;13.70;;;5.30;;
71771;SDS011;59606;52.138;5.424;2024-01-11T02:09:11;10.20;;;5.30;;
71771;SDS011;59606;52.138;5.424;2024-01-11T02:11:40;10.18;;;4.95;;
71771;SDS011;59606;52.138;5.424;2024-01-11T02:14:07;12.05;;;4.45;;
71771;SDS011;59606;52.138;5.424;2024-01-11T02:16:36;10.88;;;4.20;;
71771;SDS011;59606;52.138;5.424;2024-01-11T02:19:04;15.23;;;5.53;;
71771;SDS011;59606;52.138;5.424;2024-01-11T02:21:33;10.02;;;4.85;;
71771;SDS011;59606;52.138;5.424;2024-01-11T02:24:03;11.38;;;4.82;;
71771;SDS011;59606;52.138;5.424;2024-01-11T02:26:31;12.18;;;5.80;;
71771;SDS011;59606;52.138;5.424;2024-01-11T02:28:58;12.82;;;5.72;;
71771;SDS011;59606;52.138;5.424;2024-01-11T02:31:26;13.23;;;6.37;;
71771;SDS011;59606;52.138;5.424;2024-01-11T02:33:52;16.17;;;6.85;;
71771;SDS011;59606;52.138;5.424;2024-01-11T02:36:21;12.45;;;4.70;;
71771;SDS011;59606;52.138;5.424;2024-01-11T02:38:48;11.30;;;5.20;;
71771;SDS011;59606;52.138;5.424;2024-01-11T02:41:16;14.00;;;6.47;;
71771;SDS011;59606;52.138;5.424;2024-01-11T02:43:48;10.43;;;4.80;;
71771;SDS011;59606;52.138;5.424;2024-01-11T02:46:15;13.20;;;5.68;;
71771;SDS011;59606;52.138;5.424;2024-01-11T02:48:43;9.85;;;4.65;;
71771;SDS011;59606;52.138;5.424;2024-01-11T02:51:09;13.07;;;6.40;;
71771;SDS011;59606;52.138;5.424;2024-01-11T02:53:36;15.70;;;6.30;;
71771;SDS011;59606;52.138;5.424;2024-01-11T02:56:03;13.13;;;5.97;;
71771;SDS011;59606;52.138;5.424;2024-01-11T02:58:30;16.70;;;5.93;;
71771;SDS011;59606;52.138;5.424;2024-01-11T03:00:56;13.27;;;5.80;;
71771;SDS011;59606;52.138;5.424;2024-01-11T03:03:23;14.30;;;5.10;;
71771;SDS011;59606;52.138;5.424;2024-01-11T03:05:49;20.35;;;6.68;;
71771;SDS011;59606;52.138;5.424;2024-01-11T03:08:16;13.97;;;6.17;;
71771;SDS011;59606;52.138;5.424;2024-01-11T03:10:43;13.63;;;6.25;;
71771;SDS011;59606;52.138;5.424;2024-01-11T03:13:09;15.57;;;5.78;;
71771;SDS011;59606;52.138;5.424;2024-01-11T03:15:36;20.63;;;7.45;;
71771;SDS011;59606;52.138;5.424;2024-01-11T03:18:02;12.02;;;6.45;;
71771;SDS011;59606;52.138;5.424;2024-01-11T03:20:29;19.13;;;6.60;;
71771;SDS011;59606;52.138;5.424;2024-01-11T03:22:56;18.50;;;8.00;;
71771;SDS011;59606;52.138;5.424;2024-01-11T03:25:23;15.90;;;6.32;;
71771;SDS011;59606;52.138;5.424;2024-01-11T03:27:49;18.95;;;6.88;;
71771;SDS011;59606;52.138;5.424;2024-01-11T03:30:16;18.10;;;7.07;;
71771;SDS011;59606;52.138;5.424;2024-01-11T03:32:43;16.93;;;6.80;;
71771;SDS011;59606;52.138;5.424;2024-01-11T03:35:10;16.20;;;6.75;;
71771;SDS011;59606;52.138;5.424;2024-01-11T03:37:37;14.88;;;7.28;;
71771;SDS011;59606;52.138;5.424;2024-01-11T03:40:04;15.05;;;6.85;;
71771;SDS011;59606;52.138;5.424;2024-01-11T03:42:31;18.55;;;8.57;;
71771;SDS011;59606;52.138;5.424;2024-01-11T03:44:57;11.90;;;5.77;;
71771;SDS011;59606;52.138;5.424;2024-01-11T03:47:24;19.45;;;7.13;;
71771;SDS011;59606;52.138;5.424;2024-01-11T03:49:51;22.05;;;8.95;;
71771;SDS011;59606;52.138;5.424;2024-01-11T03:52:17;17.23;;;7.05;;
71771;SDS011;59606;52.138;5.424;2024-01-11T03:54:44;18.15;;;7.45;;
71771;SDS011;59606;52.138;5.424;2024-01-11T03:57:11;15.63;;;8.17;;
71771;SDS011;59606;52.138;5.424;2024-01-11T03:59:37;17.77;;;8.27;;
71771;SDS011;59606;52.138;5.424;2024-01-11T04:02:04;19.05;;;8.93;;
71771;SDS011;59606;52.138;5.424;2024-01-11T04:04:30;23.50;;;7.82;;
71771;SDS011;59606;52.138;5.424;2024-01-11T04:06:57;21.55;;;9.80;;
71771;SDS011;59606;52.138;5.424;2024-01-11T04:09:23;17.90;;;7.93;;
71771;SDS011;59606;52.138;5.424;2024-01-11T04:11:50;22.15;;;9.45;;
71771;SDS011;59606;52.138;5.424;2024-01-11T04:14:17;25.15;;;10.20;;
71771;SDS011;59606;52.138;5.424;2024-01-11T04:16:43;16.95;;;7.90;;
71771;SDS011;59606;52.138;5.424;2024-01-11T04:19:10;20.42;;;8.40;;
71771;SDS011;59606;52.138;5.424;2024-01-11T04:21:37;17.67;;;8.57;;
71771;SDS011;59606;52.138;5.424;2024-01-11T04:24:05;22.02;;;9.13;;
71771;SDS011;59606;52.138;5.424;2024-01-11T04:26:35;28.38;;;11.77;;
71771;SDS011;59606;52.138;5.424;2024-01-11T04:29:02;25.63;;;9.45;;
71771;SDS011;59606;52.138;5.424;2024-01-11T04:31:28;26.88;;;11.13;;
71771;SDS011;59606;52.138;5.424;2024-01-11T04:33:55;24.30;;;9.27;;
71771;SDS011;59606;52.138;5.424;2024-01-11T04:36:22;29.13;;;10.60;;
71771;SDS011;59606;52.138;5.424;2024-01-11T04:38:49;30.75;;;12.15;;
71771;SDS011;59606;52.138;5.424;2024-01-11T04:41:15;21.27;;;9.45;;
71771;SDS011;59606;52.138;5.424;2024-01-11T04:43:43;23.02;;;10.63;;
71771;SDS011;59606;52.138;5.424;2024-01-11T04:46:18;22.17;;;10.67;;
71771;SDS011;59606;52.138;5.424;2024-01-11T04:48:46;23.48;;;9.18;;
71771;SDS011;59606;52.138;5.424;2024-01-11T04:51:13;23.77;;;10.32;;
71771;SDS011;59606;52.138;5.424;2024-01-11T04:53:41;22.33;;;9.52;;
71771;SDS011;59606;52.138;5.424;2024-01-11T04:56:09;16.10;;;9.02;;
71771;SDS011;59606;52.138;5.424;2024-01-11T04:58:38;21.93;;;9.63;;
71771;SDS011;59606;52.138;5.424;2024-01-11T05:01:06;25.65;;;10.70;;
71771;SDS011;59606;52.138;5.424;2024-01-11T05:03:33;22.35;;;10.63;;
71771;SDS011;59606;52.138;5.424;2024-01-11T05:06:00;21.83;;;9.70;;
71771;SDS011;59606;52.138;5.424;2024-01-11T05:08:28;24.40;;;11.50;;
71771;SDS011;59606;52.138;5.424;2024-01-11T05:10:55;26.13;;;10.87;;
71771;SDS011;59606;52.138;5.424;2024-01-11T05:13:22;22.85;;;11.13;;
71771;SDS011;59606;52.138;5.424;2024-01-11T05:15:49;23.83;;;10.60;;
71771;SDS011;59606;52.138;5.424;2024-01-11T05:18:15;18.10;;;8.25;;
71771;SDS011;59606;52.138;5.424;2024-01-11T05:20:42;24.17;;;9.95;;
71771;SDS011;59606;52.138;5.424;2024-01-11T05:23:09;26.03;;;10.53;;
71771;SDS011;59606;52.138;5.424;2024-01-11T05:25:35;30.58;;;10.35;;
71771;SDS011;59606;52.138;5.424;2024-01-11T05:28:02;22.42;;;10.35;;
71771;SDS011;59606;52.138;5.424;2024-01-11T05:30:30;22.67;;;9.45;;
71771;SDS011;59606;52.138;5.424;2024-01-11T05:32:57;26.27;;;10.43;;
71771;SDS011;59606;52.138;5.424;2024-01-11T05:35:24;23.13;;;8.93;;
71771;SDS011;59606;52.138;5.424;2024-01-11T05:37:53;24.85;;;9.35;;
71771;SDS011;59606;52.138;5.424;2024-01-11T05:40:23;21.83;;;10.52;;
71771;SDS011;59606;52.138;5.424;2024-01-11T05:42:50;28.45;;;10.02;;
71771;SDS011;59606;52.138;5.424;2024-01-11T05:45:16;17.08;;;8.40;;
71771;SDS011;59606;52.138;5.424;2024-01-11T05:47:47;30.97;;;13.23;;
71771;SDS011;59606;52.138;5.424;2024-01-11T05:50:14;31.02;;;10.77;;
71771;SDS011;59606;52.138;5.424;2024-01-11T05:52:42;19.35;;;8.90;;
71771;SDS011;59606;52.138;5.424;2024-01-11T05:55:08;22.20;;;10.00;;
71771;SDS011;59606;52.138;5.424;2024-01-11T05:57:35;26.08;;;10.35;;
71771;SDS011;59606;52.138;5.424;2024-01-11T06:00:02;25.33;;;8.47;;
71771;SDS011;59606;52.138;5.424;2024-01-11T06:02:29;26.20;;;9.15;;
71771;SDS011;59606;52.138;5.424;2024-01-11T06:04:57;22.85;;;9.90;;
71771;SDS011;59606;52.138;5.424;2024-01-11T06:07:24;26.00;;;9.27;;
71771;SDS011;59606;52.138;5.424;2024-01-11T06:09:51;28.38;;;11.10;;
71771;SDS011;59606;52.138;5.424;2024-01-11T06:12:17;24.67;;;10.30;;
71771;SDS011;59606;52.138;5.424;2024-01-11T06:14:44;26.58;;;10.63;;
71771;SDS011;59606;52.138;5.424;2024-01-11T06:17:10;26.38;;;11.18;;
71771;SDS011;59606;52.138;5.424;2024-01-11T06:19:37;24.45;;;11.00;;
71771;SDS011;59606;52.138;5.424;2024-01-11T06:22:04;23.23;;;11.15;;
71771;SDS011;59606;52.138;5.424;2024-01-11T06:24:32;21.57;;;10.80;;
71771;SDS011;59606;52.138;5.424;2024-01-11T06:26:58;25.17;;;11.05;;
71771;SDS011;59606;52.138;5.424;2024-01-11T06:29:25;21.70;;;10.80;;
71771;SDS011;59606;52.138;5.424;2024-01-11T06:31:51;25.63;;;11.30;;
71771;SDS011;59606;52.138;5.424;2024-01-11T06:34:18;23.00;;;10.93;;
71771;SDS011;59606;52.138;5.424;2024-01-11T06:36:45;30.40;;;9.90;;
71771;SDS011;59606;52.138;5.424;2024-01-11T06:39:11;27.85;;;10.82;;
71771;SDS011;59606;52.138;5.424;2024-01-11T06:41:39;25.60;;;11.13;;
71771;SDS011;59606;52.138;5.424;2024-01-11T06:44:06;26.80;;;10.40;;
71771;SDS011;59606;52.138;5.424;2024-01-11T06:46:32;26.20;;;9.63;;
71771;SDS011;59606;52.138;5.424;2024-01-11T06:48:59;26.77;;;10.93;;
71771;SDS011;59606;52.138;5.424;2024-01-11T06:51:26;25.13;;;11.48;;
71771;SDS011;59606;52.138;5.424;2024-01-11T06:53:53;28.08;;;12.65;;
71771;SDS011;59606;52.138;5.424;2024-01-11T06:56:19;27.85;;;10.95;;
71771;SDS011;59606;52.138;5.424;2024-01-11T06:58:47;26.00;;;11.52;;
71771;SDS011;59606;52.138;5.424;2024-01-11T07:01:14;22.83;;;10.17;;
71771;SDS011;59606;52.138;5.424;2024-01-11T07:03:41;28.77;;;12.38;;
71771;SDS011;59606;52.138;5.424;2024-01-11T07:06:08;27.27;;;12.02;;
71771;SDS011;59606;52.138;5.424;2024-01-11T07:08:35;18.50;;;10.00;;
71771;SDS011;59606;52.138;5.424;2024-01-11T07:11:02;25.08;;;8.95;;
71771;SDS011;59606;52.138;5.424;2024-01-11T07:13:32;23.53;;;10.83;;
71771;SDS011;59606;52.138;5.424;2024-01-11T07:15:59;25.70;;;11.40;;
71771;SDS011;59606;52.138;5.424;2024-01-11T07:18:26;24.95;;;10.23;;
71771;SDS011;59606;52.138;5.424;2024-01-11T07:20:53;23.48;;;10.55;;
71771;SDS011;59606;52.138;5.424;2024-01-11T07:23:22;22.17;;;9.77;;
71771;SDS011;59606;52.138;5.424;2024-01-11T07:25:49;29.13;;;12.73;;
71771;SDS011;59606;52.138;5.424;2024-01-11T07:28:16;26.88;;;12.75;;
71771;SDS011;59606;52.138;5.424;2024-01-11T07:30:43;23.92;;;11.57;;
71771;SDS011;59606;52.138;5.424;2024-01-11T07:33:10;26.52;;;11.02;;
71771;SDS011;59606;52.138;5.424;2024-01-11T07:35:37;22.75;;;10.38;;
71771;SDS011;59606;52.138;5.424;2024-01-11T07:38:04;24.60;;;9.83;;
71771;SDS011;59606;52.138;5.424;2024-01-11T07:40:30;21.77;;;10.85;;
71771;SDS011;59606;52.138;5.424;2024-01-11T07:43:01;22.08;;;10.40;;
71771;SDS011;59606;52.138;5.424;2024-01-11T07:45:30;23.20;;;10.27;;
71771;SDS011;59606;52.138;5.424;2024-01-11T07:47:56;26.50;;;11.15;;
71771;SDS011;59606;52.138;5.424;2024-01-11T07:50:23;24.70;;;10.90;;
71771;SDS011;59606;52.138;5.424;2024-01-11T07:52:50;38.67;;;11.95;;
71771;SDS011;59606;52.138;5.424;2024-01-11T07:55:17;26.13;;;9.85;;
71771;SDS011;59606;52.138;5.424;2024-01-11T07:57:44;26.00;;;10.38;;
71771;SDS011;59606;52.138;5.424;2024-01-11T08:00:10;27.13;;;11.20;;
71771;SDS011;59606;52.138;5.424;2024-01-11T08:02:37;27.80;;;10.13;;
71771;SDS011;59606;52.138;5.424;2024-01-11T08:05:04;24.67;;;11.50;;
71771;SDS011;59606;52.138;5.424;2024-01-11T08:07:31;27.83;;;11.95;;
71771;SDS011;59606;52.138;5.424;2024-01-11T08:09:58;24.63;;;10.70;;
71771;SDS011;59606;52.138;5.424;2024-01-11T08:12:24;25.58;;;9.15;;
71771;SDS011;59606;52.138;5.424;2024-01-11T08:14:51;29.77;;;10.93;;
71771;SDS011;59606;52.138;5.424;2024-01-11T08:17:18;28.45;;;11.43;;
71771;SDS011;59606;52.138;5.424;2024-01-11T08:19:45;28.38;;;11.48;;
71771;SDS011;59606;52.138;5.424;2024-01-11T08:22:11;19.02;;;10.15;;
71771;SDS011;59606;52.138;5.424;2024-01-11T08:24:38;29.63;;;10.63;;
71771;SDS011;59606;52.138;5.424;2024-01-11T08:27:05;25.77;;;10.77;;
71771;SDS011;59606;52.138;5.424;2024-01-11T08:29:32;24.42;;;9.95;;
71771;SDS011;59606;52.138;5.424;2024-01-11T08:31:59;28.45;;;10.85;;
71771;SDS011;59606;52.138;5.424;2024-01-11T08:34:49;31.58;;;12.30;;
71771;SDS011;59606;52.138;5.424;2024-01-11T08:37:16;33.92;;;12.45;;
71771;SDS011;59606;52.138;5.424;2024-01-11T08:39:42;26.57;;;11.63;;
71771;SDS011;59606;52.138;5.424;2024-01-11T08:42:09;28.40;;;11.73;;
71771;SDS011;59606;52.138;5.424;2024-01-11T08:44:35;26.55;;;11.55;;
71771;SDS011;59606;52.138;5.424;2024-01-11T08:47:02;26.30;;;10.90;;
71771;SDS011;59606;52.138;5.424;2024-01-11T08:49:30;32.10;;;12.07;;
71771;SDS011;59606;52.138;5.424;2024-01-11T08:51:56;29.83;;;13.13;;
71771;SDS011;59606;52.138;5.424;2024-01-11T08:54:23;31.83;;;12.70;;
71771;SDS011;59606;52.138;5.424;2024-01-11T08:56:49;31.15;;;13.73;;
71771;SDS011;59606;52.138;5.424;2024-01-11T08:59:16;26.35;;;11.07;;
71771;SDS011;59606;52.138;5.424;2024-01-11T09:01:43;33.15;;;14.32;;
71771;SDS011;59606;52.138;5.424;2024-01-11T09:04:22;34.60;;;13.73;;
71771;SDS011;59606;52.138;5.424;2024-01-11T09:06:49;29.10;;;13.10;;
71771;SDS011;59606;52.138;5.424;2024-01-11T09:09:17;35.38;;;15.52;;
71771;SDS011;59606;52.138;5.424;2024-01-11T09:11:43;29.33;;;12.80;;
71771;SDS011;59606;52.138;5.424;2024-01-11T09:14:10;32.33;;;14.50;;
71771;SDS011;59606;52.138;5.424;2024-01-11T09:16:37;30.27;;;12.53;;
71771;SDS011;59606;52.138;5.424;2024-01-11T09:19:06;33.60;;;15.07;;
71771;SDS011;59606;52.138;5.424;2024-01-11T09:21:32;30.17;;;12.27;;
71771;SDS011;59606;52.138;5.424;2024-01-11T09:23:59;24.25;;;11.35;;
71771;SDS011;59606;52.138;5.424;2024-01-11T09:26:26;28.75;;;10.68;;
71771;SDS011;59606;52.138;5.424;2024-01-11T09:28:52;27.80;;;9.97;;
71771;SDS011;59606;52.138;5.424;2024-01-11T09:31:19;30.40;;;10.25;;
71771;SDS011;59606;52.138;5.424;2024-01-11T09:33:45;27.70;;;11.50;;
71771;SDS011;59606;52.138;5.424;2024-01-11T09:36:13;24.23;;;10.55;;
71771;SDS011;59606;52.138;5.424;2024-01-11T09:38:40;25.92;;;9.90;;
71771;SDS011;59606;52.138;5.424;2024-01-11T09:41:07;31.03;;;10.67;;
71771;SDS011;59606;52.138;5.424;2024-01-11T09:43:39;30.70;;;9.75;;
71771;SDS011;59606;52.138;5.424;2024-01-11T09:46:07;28.55;;;9.80;;
71771;SDS011;59606;52.138;5.424;2024-01-11T09:48:35;26.98;;;9.75;;
71771;SDS011;59606;52.138;5.424;2024-01-11T09:51:04;27.48;;;9.00;;
71771;SDS011;59606;52.138;5.424;2024-01-11T09:53:38;23.43;;;9.33;;
71771;SDS011;59606;52.138;5.424;2024-01-11T09:56:09;31.55;;;10.52;;
71771;SDS011;59606;52.138;5.424;2024-01-11T09:58:36;23.92;;;9.05;;
71771;SDS011;59606;52.138;5.424;2024-01-11T10:01:11;30.10;;;9.55;;
71771;SDS011;59606;52.138;5.424;2024-01-11T10:03:40;30.08;;;10.90;;
71771;SDS011;59606;52.138;5.424;2024-01-11T10:06:09;28.47;;;9.70;;
71771;SDS011;59606;52.138;5.424;2024-01-11T10:08:36;33.22;;;9.68;;
71771;SDS011;59606;52.138;5.424;2024-01-11T10:11:03;30.25;;;8.90;;
71771;SDS011;59606;52.138;5.424;2024-01-11T10:13:30;29.58;;;9.18;;
71771;SDS011;59606;52.138;5.424;2024-01-11T10:16:09;31.10;;;9.85;;
71771;SDS011;59606;52.138;5.424;2024-01-11T10:18:40;35.77;;;10.70;;
71771;SDS011;59606;52.138;5.424;2024-01-11T10:21:07;27.05;;;9.60;;
71771;SDS011;59606;52.138;5.424;2024-01-11T10:23:36;26.17;;;9.35;;
71771;SDS011;59606;52.138;5.424;2024-01-11T10:26:03;23.15;;;9.18;;
71771;SDS011;59606;52.138;5.424;2024-01-11T10:28:30;27.23;;;9.23;;
71771;SDS011;59606;52.138;5.424;2024-01-11T10:30:57;26.40;;;8.83;;
71771;SDS011;59606;52.138;5.424;2024-01-11T10:33:23;24.15;;;9.13;;
71771;SDS011;59606;52.138;5.424;2024-01-11T10:35:50;30.75;;;10.23;;
71771;SDS011;59606;52.138;5.424;2024-01-11T10:38:17;26.23;;;9.07;;
71771;SDS011;59606;52.138;5.424;2024-01-11T10:40:44;24.17;;;8.20;;
71771;SDS011;59606;52.138;5.424;2024-01-11T10:43:12;26.40;;;7.97;;
71771;SDS011;59606;52.138;5.424;2024-01-11T10:45:41;20.35;;;8.23;;
71771;SDS011;59606;52.138;5.424;2024-01-11T10:48:14;29.25;;;7.85;;
71771;SDS011;59606;52.138;5.424;2024-01-11T10:50:42;23.23;;;9.77;;
71771;SDS011;59606;52.138;5.424;2024-01-11T10:55:56;26.07;;;8.43;;
71771;SDS011;59606;52.138;5.424;2024-01-11T10:58:25;21.80;;;8.88;;
71771;SDS011;59606;52.138;5.424;2024-01-11T11:00:53;25.60;;;8.38;;
71771;SDS011;59606;52.138;5.424;2024-01-11T11:03:22;29.48;;;9.20;;
71771;SDS011;59606;52.138;5.424;2024-01-11T11:05:53;26.88;;;6.90;;
71771;SDS011;59606;52.138;5.424;2024-01-11T11:08:22;27.93;;;8.87;;
71771;SDS011;59606;52.138;5.424;2024-01-11T11:10:55;25.98;;;8.10;;
71771;SDS011;59606;52.138;5.424;2024-01-11T11:13:23;24.25;;;8.38;;
71771;SDS011;59606;52.138;5.424;2024-01-11T11:15:51;23.00;;;9.38;;
71771;SDS011;59606;52.138;5.424;2024-01-11T11:18:19;27.35;;;9.68;;
71771;SDS011;59606;52.138;5.424;2024-01-11T11:20:47;23.93;;;9.17;;
71771;SDS011;59606;52.138;5.424;2024-01-11T11:23:15;27.85;;;9.20;;
71771;SDS011;59606;52.138;5.424;2024-01-11T11:25:47;23.13;;;9.10;;
71771;SDS011;59606;52.138;5.424;2024-01-11T11:28:17;27.73;;;9.57;;
71771;SDS011;59606;52.138;5.424;2024-01-11T11:30:45;26.77;;;8.15;;
71771;SDS011;59606;52.138;5.424;2024-01-11T11:33:18;26.33;;;9.50;;
71771;SDS011;59606;52.138;5.424;2024-01-11T11:35:48;26.70;;;7.97;;
71771;SDS011;59606;52.138;5.424;2024-01-11T11:38:18;24.23;;;8.48;;
71771;SDS011;59606;52.138;5.424;2024-01-11T11:40:47;21.77;;;7.97;;
71771;SDS011;59606;52.138;5.424;2024-01-11T11:43:15;29.05;;;8.30;;
71771;SDS011;59606;52.138;5.424;2024-01-11T11:45:45;24.43;;;8.13;;
71771;SDS011;59606;52.138;5.424;2024-01-11T11:53:30;26.85;;;9.32;;
71771;SDS011;59606;52.138;5.424;2024-01-11T11:56:00;21.77;;;9.07;;
71771;SDS011;59606;52.138;5.424;2024-01-11T11:58:31;21.67;;;8.23;;
71771;SDS011;59606;52.138;5.424;2024-01-11T12:00:59;18.48;;;7.70;;
71771;SDS011;59606;52.138;5.424;2024-01-11T12:03:28;25.90;;;9.55;;
71771;SDS011;59606;52.138;5.424;2024-01-11T12:05:57;21.27;;;8.25;;
71771;SDS011;59606;52.138;5.424;2024-01-11T12:08:24;23.67;;;8.18;;
71771;SDS011;59606;52.138;5.424;2024-01-11T12:10:51;23.87;;;9.17;;
71771;SDS011;59606;52.138;5.424;2024-01-11T12:13:18;22.80;;;9.05;;
71771;SDS011;59606;52.138;5.424;2024-01-11T12:15:45;24.48;;;8.75;;
71771;SDS011;59606;52.138;5.424;2024-01-11T12:18:12;21.40;;;8.05;;
71771;SDS011;59606;52.138;5.424;2024-01-11T12:20:39;21.75;;;8.77;;
71771;SDS011;59606;52.138;5.424;2024-01-11T12:23:07;19.90;;;7.73;;
71771;SDS011;59606;52.138;5.424;2024-01-11T12:25:34;23.70;;;8.10;;
71771;SDS011;59606;52.138;5.424;2024-01-11T12:28:01;20.92;;;8.85;;
71771;SDS011;59606;52.138;5.424;2024-01-11T12:30:28;26.55;;;9.00;;
71771;SDS011;59606;52.138;5.424;2024-01-11T12:32:56;18.23;;;7.70;;
71771;SDS011;59606;52.138;5.424;2024-01-11T12:35:23;20.33;;;7.53;;
71771;SDS011;59606;52.138;5.424;2024-01-11T12:37:58;24.90;;;8.23;;
71771;SDS011;59606;52.138;5.424;2024-01-11T12:40:28;25.25;;;8.82;;
71771;SDS011;59606;52.138;5.424;2024-01-11T12:43:01;22.05;;;8.70;;
71771;SDS011;59606;52.138;5.424;2024-01-11T12:45:28;22.65;;;8.88;;
71771;SDS011;59606;52.138;5.424;2024-01-11T12:47:56;19.37;;;7.87;;
71771;SDS011;59606;52.138;5.424;2024-01-11T12:50:23;24.73;;;8.38;;
71771;SDS011;59606;52.138;5.424;2024-01-11T12:53:12;22.23;;;7.97;;
71771;SDS011;59606;52.138;5.424;2024-01-11T12:55:47;22.30;;;7.38;;
71771;SDS011;59606;52.138;5.424;2024-01-11T12:58:24;25.38;;;8.55;;
71771;SDS011;59606;52.138;5.424;2024-01-11T13:00:53;26.63;;;9.70;;
71771;SDS011;59606;52.138;5.424;2024-01-11T13:03:20;25.38;;;8.82;;
71771;SDS011;59606;52.138;5.424;2024-01-11T13:05:47;23.27;;;8.82;;
71771;SDS011;59606;52.138;5.424;2024-01-11T13:08:15;28.00;;;9.25;;
71771;SDS011;59606;52.138;5.424;2024-01-11T13:10:45;21.45;;;8.55;;
71771;SDS011;59606;52.138;5.424;2024-01-11T13:13:14;20.50;;;8.37;;
71771;SDS011;59606;52.138;5.424;2024-01-11T13:15:41;23.65;;;8.88;;
71771;SDS011;59606;52.138;5.424;2024-01-11T13:18:07;26.00;;;10.27;;
71771;SDS011;59606;52.138;5.424;2024-01-11T13:20:34;27.23;;;9.38;;
71771;SDS011;59606;52.138;5.424;2024-01-11T13:25:57;19.30;;;8.13;;
71771;SDS011;59606;52.138;5.424;2024-01-11T13:28:24;21.95;;;9.65;;
71771;SDS011;59606;52.138;5.424;2024-01-11T13:30:53;22.35;;;8.80;;
71771;SDS011;59606;52.138;5.424;2024-01-11T13:33:20;22.38;;;8.73;;
71771;SDS011;59606;52.138;5.424;2024-01-11T13:35:49;19.58;;;7.97;;
71771;SDS011;59606;52.138;5.424;2024-01-11T13:38:16;21.13;;;8.50;;
71771;SDS011;59606;52.138;5.424;2024-01-11T13:40:42;21.58;;;7.43;;
71771;SDS011;59606;52.138;5.424;2024-01-11T13:43:09;21.58;;;8.93;;
71771;SDS011;59606;52.138;5.424;2024-01-11T13:45:36;22.45;;;9.25;;
71771;SDS011;59606;52.138;5.424;2024-01-11T13:48:03;17.80;;;8.05;;
71771;SDS011;59606;52.138;5.424;2024-01-11T13:50:31;25.30;;;8.03;;
71771;SDS011;59606;52.138;5.424;2024-01-11T13:52:59;17.17;;;6.95;;
71771;SDS011;59606;52.138;5.424;2024-01-11T13:55:26;23.27;;;7.93;;
71771;SDS011;59606;52.138;5.424;2024-01-11T13:57:53;18.58;;;8.05;;
71771;SDS011;59606;52.138;5.424;2024-01-11T14:00:20;21.60;;;8.68;;
71771;SDS011;59606;52.138;5.424;2024-01-11T14:02:47;24.93;;;8.37;;
71771;SDS011;59606;52.138;5.424;2024-01-11T14:05:14;26.35;;;8.95;;
71771;SDS011;59606;52.138;5.424;2024-01-11T14:07:42;23.23;;;9.57;;
71771;SDS011;59606;52.138;5.424;2024-01-11T14:10:10;19.38;;;7.50;;
71771;SDS011;59606;52.138;5.424;2024-01-11T14:12:38;21.52;;;7.97;;
71771;SDS011;59606;52.138;5.424;2024-01-11T14:15:05;19.53;;;7.60;;
71771;SDS011;59606;52.138;5.424;2024-01-11T14:17:33;18.90;;;7.95;;
71771;SDS011;59606;52.138;5.424;2024-01-11T14:20:00;20.10;;;7.47;;
71771;SDS011;59606;52.138;5.424;2024-01-11T14:22:29;25.17;;;10.15;;
71771;SDS011;59606;52.138;5.424;2024-01-11T14:24:55;20.02;;;7.75;;
71771;SDS011;59606;52.138;5.424;2024-01-11T14:27:22;24.03;;;8.13;;
71771;SDS011;59606;52.138;5.424;2024-01-11T14:29:49;22.52;;;7.68;;
71771;SDS011;59606;52.138;5.424;2024-01-11T14:32:16;19.27;;;7.63;;
71771;SDS011;59606;52.138;5.424;2024-01-11T14:34:59;23.80;;;9.00;;
71771;SDS011;59606;52.138;5.424;2024-01-11T14:37:31;20.75;;;8.25;;
71771;SDS011;59606;52.138;5.424;2024-01-11T14:39:58;22.20;;;7.63;;
71771;SDS011;59606;52.138;5.424;2024-01-11T14:42:26;18.88;;;7.60;;
71771;SDS011;59606;52.138;5.424;2024-01-11T14:44:53;20.80;;;8.23;;